sensor_id;sensor_type;location;lat;lon;timestamp;P1;durP1;ratioP1;P2;durP2;ratioP2
14241;SDS011;7205;50.864;12.766;2023-04-25T00:01:20;4.30;;;4.00;;
14241;SDS011;7205;50.864;12.766;2023-04-25T00:03:48;4.10;;;3.63;;
14241;SDS011;7205;50.864;12.766;2023-04-25T00:06:16;5.23;;;3.70;;
14241;SDS011;7205;50.864;12.766;2023-04-25T00:08:44;3.70;;;3.50;;
14241;SDS011;7205;50.864;12.766;2023-04-25T00:11:11;6.20;;;4.03;;
14241;SDS011;7205;50.864;12.766;2023-04-25T00:13:37;5.03;;;3.87;;
14241;SDS011;7205;50.864;12.766;2023-04-25T00:16:06;4.50;;;4.10;;
14241;SDS011;7205;50.864;12.766;2023-04-25T00:18:33;5.97;;;3.83;;
14241;SDS011;7205;50.864;12.766;2023-04-25T00:21:00;4.30;;;4.00;;
14241;SDS011;7205;50.864;12.766;2023-04-25T00:23:29;6.17;;;4.10;;
14241;SDS011;7205;50.864;12.766;2023-04-25T00:25:56;4.97;;;3.97;;
14241;SDS011;7205;50.864;12.766;2023-04-25T00:28:22;5.63;;;4.50;;
14241;SDS011;7205;50.864;12.766;2023-04-25T00:30:49;7.37;;;4.60;;
14241;SDS011;7205;50.864;12.766;2023-04-25T00:33:16;5.53;;;4.40;;
14241;SDS011;7205;50.864;12.766;2023-04-25T00:35:43;4.97;;;4.30;;
14241;SDS011;7205;50.864;12.766;2023-04-25T00:38:10;4.30;;;4.00;;
14241;SDS011;7205;50.864;12.766;2023-04-25T00:40:38;4.83;;;4.33;;
14241;SDS011;7205;50.864;12.766;2023-04-25T00:43:05;5.10;;;4.60;;
14241;SDS011;7205;50.864;12.766;2023-04-25T00:45:32;5.50;;;4.93;;
14241;SDS011;7205;50.864;12.766;2023-04-25T00:48:05;7.33;;;4.70;;
14241;SDS011;7205;50.864;12.766;2023-04-25T00:50:32;6.50;;;4.27;;
14241;SDS011;7205;50.864;12.766;2023-04-25T00:52:59;4.70;;;4.30;;
14241;SDS011;7205;50.864;12.766;2023-04-25T00:55:27;6.03;;;4.90;;
14241;SDS011;7205;50.864;12.766;2023-04-25T00:57:55;4.80;;;4.40;;
14241;SDS011;7205;50.864;12.766;2023-04-25T01:00:22;6.47;;;4.60;;
14241;SDS011;7205;50.864;12.766;2023-04-25T01:02:49;5.27;;;4.27;;
14241;SDS011;7205;50.864;12.766;2023-04-25T01:05:17;5.70;;;4.90;;
14241;SDS011;7205;50.864;12.766;2023-04-25T01:07:44;4.63;;;4.23;;
14241;SDS011;7205;50.864;12.766;2023-04-25T01:10:12;5.07;;;4.57;;
14241;SDS011;7205;50.864;12.766;2023-04-25T01:12:40;7.13;;;4.93;;
14241;SDS011;7205;50.864;12.766;2023-04-25T01:15:10;5.87;;;4.60;;
14241;SDS011;7205;50.864;12.766;2023-04-25T01:17:36;6.17;;;4.70;;
14241;SDS011;7205;50.864;12.766;2023-04-25T01:20:05;5.90;;;4.67;;
14241;SDS011;7205;50.864;12.766;2023-04-25T01:22:36;4.77;;;4.37;;
14241;SDS011;7205;50.864;12.766;2023-04-25T01:25:03;5.63;;;4.50;;
14241;SDS011;7205;50.864;12.766;2023-04-25T01:27:31;6.13;;;4.60;;
14241;SDS011;7205;50.864;12.766;2023-04-25T01:29:58;5.60;;;4.50;;
14241;SDS011;7205;50.864;12.766;2023-04-25T01:32:26;5.13;;;4.40;;
14241;SDS011;7205;50.864;12.766;2023-04-25T01:34:54;6.00;;;4.40;;
14241;SDS011;7205;50.864;12.766;2023-04-25T01:37:21;5.97;;;4.47;;
14241;SDS011;7205;50.864;12.766;2023-04-25T01:39:50;5.30;;;4.67;;
14241;SDS011;7205;50.864;12.766;2023-04-25T01:42:17;4.77;;;4.47;;
14241;SDS011;7205;50.864;12.766;2023-04-25T01:44:44;4.80;;;4.30;;
14241;SDS011;7205;50.864;12.766;2023-04-25T01:47:11;4.90;;;4.47;;
14241;SDS011;7205;50.864;12.766;2023-04-25T01:49:38;4.67;;;4.33;;
14241;SDS011;7205;50.864;12.766;2023-04-25T01:52:05;5.17;;;4.67;;
14241;SDS011;7205;50.864;12.766;2023-04-25T01:54:32;4.63;;;4.23;;
14241;SDS011;7205;50.864;12.766;2023-04-25T01:57:00;5.73;;;4.50;;
14241;SDS011;7205;50.864;12.766;2023-04-25T01:59:27;4.93;;;4.43;;
14241;SDS011;7205;50.864;12.766;2023-04-25T02:02:12;6.53;;;4.03;;
14241;SDS011;7205;50.864;12.766;2023-04-25T02:04:39;4.67;;;4.27;;
14241;SDS011;7205;50.864;12.766;2023-04-25T02:07:06;6.73;;;4.27;;
14241;SDS011;7205;50.864;12.766;2023-04-25T02:09:43;5.37;;;4.43;;
14241;SDS011;7205;50.864;12.766;2023-04-25T02:12:12;4.57;;;3.93;;
14241;SDS011;7205;50.864;12.766;2023-04-25T02:15:11;4.87;;;4.47;;
14241;SDS011;7205;50.864;12.766;2023-04-25T02:17:48;6.13;;;4.47;;
14241;SDS011;7205;50.864;12.766;2023-04-25T02:20:15;5.33;;;4.60;;
14241;SDS011;7205;50.864;12.766;2023-04-25T02:22:42;4.90;;;4.50;;
14241;SDS011;7205;50.864;12.766;2023-04-25T02:25:10;6.57;;;4.80;;
14241;SDS011;7205;50.864;12.766;2023-04-25T02:27:39;4.60;;;4.20;;
14241;SDS011;7205;50.864;12.766;2023-04-25T02:30:07;4.57;;;4.27;;
14241;SDS011;7205;50.864;12.766;2023-04-25T02:32:35;4.40;;;4.10;;
14241;SDS011;7205;50.864;12.766;2023-04-25T02:35:02;6.93;;;4.43;;
14241;SDS011;7205;50.864;12.766;2023-04-25T02:37:29;4.80;;;4.20;;
14241;SDS011;7205;50.864;12.766;2023-04-25T02:39:56;4.60;;;4.30;;
14241;SDS011;7205;50.864;12.766;2023-04-25T02:42:23;6.13;;;4.57;;
14241;SDS011;7205;50.864;12.766;2023-04-25T02:44:52;5.23;;;4.63;;
14241;SDS011;7205;50.864;12.766;2023-04-25T02:47:19;4.83;;;4.40;;
14241;SDS011;7205;50.864;12.766;2023-04-25T02:49:48;4.87;;;4.10;;
14241;SDS011;7205;50.864;12.766;2023-04-25T02:52:15;4.93;;;4.50;;
14241;SDS011;7205;50.864;12.766;2023-04-25T02:54:44;5.93;;;4.93;;
14241;SDS011;7205;50.864;12.766;2023-04-25T02:57:13;4.50;;;4.20;;
14241;SDS011;7205;50.864;12.766;2023-04-25T02:59:40;5.17;;;4.77;;
14241;SDS011;7205;50.864;12.766;2023-04-25T03:02:09;4.70;;;4.30;;
14241;SDS011;7205;50.864;12.766;2023-04-25T03:04:36;5.53;;;5.13;;
14241;SDS011;7205;50.864;12.766;2023-04-25T03:07:03;5.67;;;4.60;;
14241;SDS011;7205;50.864;12.766;2023-04-25T03:09:30;4.20;;;3.90;;
14241;SDS011;7205;50.864;12.766;2023-04-25T03:11:57;4.43;;;4.03;;
14241;SDS011;7205;50.864;12.766;2023-04-25T03:14:24;4.30;;;3.97;;
14241;SDS011;7205;50.864;12.766;2023-04-25T03:16:51;6.07;;;5.37;;
14241;SDS011;7205;50.864;12.766;2023-04-25T03:19:19;4.33;;;4.03;;
14241;SDS011;7205;50.864;12.766;2023-04-25T03:21:46;10.17;;;8.63;;
14241;SDS011;7205;50.864;12.766;2023-04-25T03:24:13;5.77;;;4.67;;
14241;SDS011;7205;50.864;12.766;2023-04-25T03:26:40;7.93;;;5.37;;
14241;SDS011;7205;50.864;12.766;2023-04-25T03:29:07;4.93;;;4.53;;
14241;SDS011;7205;50.864;12.766;2023-04-25T03:31:36;4.43;;;4.13;;
14241;SDS011;7205;50.864;12.766;2023-04-25T03:34:03;6.43;;;4.80;;
14241;SDS011;7205;50.864;12.766;2023-04-25T03:36:31;5.33;;;4.83;;
14241;SDS011;7205;50.864;12.766;2023-04-25T03:38:59;5.83;;;5.00;;
14241;SDS011;7205;50.864;12.766;2023-04-25T03:41:27;5.80;;;5.03;;
14241;SDS011;7205;50.864;12.766;2023-04-25T03:44:00;6.40;;;5.80;;
14241;SDS011;7205;50.864;12.766;2023-04-25T03:46:27;7.47;;;5.97;;
14241;SDS011;7205;50.864;12.766;2023-04-25T03:48:54;6.90;;;6.17;;
14241;SDS011;7205;50.864;12.766;2023-04-25T03:51:29;6.53;;;5.80;;
14241;SDS011;7205;50.864;12.766;2023-04-25T03:53:57;5.80;;;5.30;;
14241;SDS011;7205;50.864;12.766;2023-04-25T03:56:30;5.93;;;5.43;;
14241;SDS011;7205;50.864;12.766;2023-04-25T03:59:08;6.30;;;5.43;;
14241;SDS011;7205;50.864;12.766;2023-04-25T04:01:35;5.90;;;5.30;;
14241;SDS011;7205;50.864;12.766;2023-04-25T04:04:03;6.40;;;5.63;;
14241;SDS011;7205;50.864;12.766;2023-04-25T04:06:30;5.63;;;5.13;;
14241;SDS011;7205;50.864;12.766;2023-04-25T04:09:05;5.60;;;5.03;;
14241;SDS011;7205;50.864;12.766;2023-04-25T04:11:36;5.50;;;5.00;;
14241;SDS011;7205;50.864;12.766;2023-04-25T04:14:04;7.10;;;5.97;;
14241;SDS011;7205;50.864;12.766;2023-04-25T04:16:32;5.37;;;4.87;;
14241;SDS011;7205;50.864;12.766;2023-04-25T04:18:59;5.33;;;4.80;;
14241;SDS011;7205;50.864;12.766;2023-04-25T04:21:27;5.27;;;4.77;;
14241;SDS011;7205;50.864;12.766;2023-04-25T04:23:53;6.70;;;4.90;;
14241;SDS011;7205;50.864;12.766;2023-04-25T04:26:22;5.37;;;4.53;;
14241;SDS011;7205;50.864;12.766;2023-04-25T04:28:57;5.63;;;4.77;;
14241;SDS011;7205;50.864;12.766;2023-04-25T04:31:53;6.60;;;4.40;;
14241;SDS011;7205;50.864;12.766;2023-04-25T04:34:20;5.17;;;4.70;;
14241;SDS011;7205;50.864;12.766;2023-04-25T04:36:49;4.33;;;3.97;;
14241;SDS011;7205;50.864;12.766;2023-04-25T04:39:16;4.67;;;4.27;;
14241;SDS011;7205;50.864;12.766;2023-04-25T04:42:02;8.17;;;4.80;;
14241;SDS011;7205;50.864;12.766;2023-04-25T04:44:49;5.77;;;4.20;;
14241;SDS011;7205;50.864;12.766;2023-04-25T04:47:26;4.70;;;4.30;;
14241;SDS011;7205;50.864;12.766;2023-04-25T04:50:03;4.37;;;4.03;;
14241;SDS011;7205;50.864;12.766;2023-04-25T04:52:52;5.70;;;4.70;;
14241;SDS011;7205;50.864;12.766;2023-04-25T04:55:37;5.93;;;4.33;;
14241;SDS011;7205;50.864;12.766;2023-04-25T04:58:24;6.67;;;4.43;;
14241;SDS011;7205;50.864;12.766;2023-04-25T05:01:06;4.77;;;4.37;;
14241;SDS011;7205;50.864;12.766;2023-04-25T05:03:52;5.77;;;4.07;;
14241;SDS011;7205;50.864;12.766;2023-04-25T05:06:33;4.70;;;4.30;;
14241;SDS011;7205;50.864;12.766;2023-04-25T05:09:26;5.13;;;4.07;;
14241;SDS011;7205;50.864;12.766;2023-04-25T05:12:28;4.13;;;3.73;;
14241;SDS011;7205;50.864;12.766;2023-04-25T05:15:17;5.90;;;3.77;;
14241;SDS011;7205;50.864;12.766;2023-04-25T05:17:55;7.33;;;4.10;;
14241;SDS011;7205;50.864;12.766;2023-04-25T05:20:40;8.37;;;4.00;;
14241;SDS011;7205;50.864;12.766;2023-04-25T05:23:33;4.10;;;3.80;;
14241;SDS011;7205;50.864;12.766;2023-04-25T05:26:18;5.53;;;3.60;;
14241;SDS011;7205;50.864;12.766;2023-04-25T05:29:19;4.27;;;3.70;;
14241;SDS011;7205;50.864;12.766;2023-04-25T05:32:03;3.57;;;3.27;;
14241;SDS011;7205;50.864;12.766;2023-04-25T05:34:35;3.93;;;3.63;;
14241;SDS011;7205;50.864;12.766;2023-04-25T05:37:05;4.13;;;3.60;;
14241;SDS011;7205;50.864;12.766;2023-04-25T05:39:39;6.23;;;3.80;;
14241;SDS011;7205;50.864;12.766;2023-04-25T05:42:14;4.00;;;3.57;;
14241;SDS011;7205;50.864;12.766;2023-04-25T05:44:44;4.37;;;3.93;;
14241;SDS011;7205;50.864;12.766;2023-04-25T05:47:26;4.23;;;3.93;;
14241;SDS011;7205;50.864;12.766;2023-04-25T05:50:31;5.70;;;4.20;;
14241;SDS011;7205;50.864;12.766;2023-04-25T05:53:11;6.17;;;3.73;;
14241;SDS011;7205;50.864;12.766;2023-04-25T05:55:40;4.70;;;3.87;;
14241;SDS011;7205;50.864;12.766;2023-04-25T05:58:28;4.30;;;3.90;;
14241;SDS011;7205;50.864;12.766;2023-04-25T06:00:56;4.47;;;3.83;;
14241;SDS011;7205;50.864;12.766;2023-04-25T06:03:24;4.67;;;3.60;;
14241;SDS011;7205;50.864;12.766;2023-04-25T06:05:52;4.37;;;3.77;;
14241;SDS011;7205;50.864;12.766;2023-04-25T06:08:25;5.80;;;3.67;;
14241;SDS011;7205;50.864;12.766;2023-04-25T06:11:01;4.77;;;3.73;;
14241;SDS011;7205;50.864;12.766;2023-04-25T06:13:43;6.43;;;3.60;;
14241;SDS011;7205;50.864;12.766;2023-04-25T06:16:15;5.37;;;3.57;;
14241;SDS011;7205;50.864;12.766;2023-04-25T06:18:55;3.70;;;3.10;;
14241;SDS011;7205;50.864;12.766;2023-04-25T06:21:24;3.20;;;2.90;;
14241;SDS011;7205;50.864;12.766;2023-04-25T06:26:49;4.03;;;3.13;;
14241;SDS011;7205;50.864;12.766;2023-04-25T06:29:20;5.33;;;3.37;;
14241;SDS011;7205;50.864;12.766;2023-04-25T06:31:47;4.00;;;3.40;;
14241;SDS011;7205;50.864;12.766;2023-04-25T06:34:16;4.53;;;3.43;;
14241;SDS011;7205;50.864;12.766;2023-04-25T06:36:43;3.97;;;3.50;;
14241;SDS011;7205;50.864;12.766;2023-04-25T06:39:13;5.37;;;3.40;;
14241;SDS011;7205;50.864;12.766;2023-04-25T06:41:41;4.40;;;3.33;;
14241;SDS011;7205;50.864;12.766;2023-04-25T06:44:26;3.50;;;3.03;;
14241;SDS011;7205;50.864;12.766;2023-04-25T06:46:54;5.67;;;3.83;;
14241;SDS011;7205;50.864;12.766;2023-04-25T06:56:56;5.67;;;3.30;;
14241;SDS011;7205;50.864;12.766;2023-04-25T06:59:23;4.07;;;3.03;;
14241;SDS011;7205;50.864;12.766;2023-04-25T07:01:50;5.73;;;3.20;;
14241;SDS011;7205;50.864;12.766;2023-04-25T07:04:20;3.03;;;2.83;;
14241;SDS011;7205;50.864;12.766;2023-04-25T07:06:50;3.30;;;3.00;;
14241;SDS011;7205;50.864;12.766;2023-04-25T07:09:22;3.30;;;3.10;;
14241;SDS011;7205;50.864;12.766;2023-04-25T07:11:50;7.63;;;3.40;;
14241;SDS011;7205;50.864;12.766;2023-04-25T07:14:18;4.70;;;3.13;;
14241;SDS011;7205;50.864;12.766;2023-04-25T07:16:45;3.27;;;2.97;;
14241;SDS011;7205;50.864;12.766;2023-04-25T07:19:12;4.80;;;2.90;;
14241;SDS011;7205;50.864;12.766;2023-04-25T07:21:39;4.17;;;3.00;;
14241;SDS011;7205;50.864;12.766;2023-04-25T07:24:06;7.13;;;3.47;;
14241;SDS011;7205;50.864;12.766;2023-04-25T07:26:37;4.17;;;3.43;;
14241;SDS011;7205;50.864;12.766;2023-04-25T07:29:35;5.07;;;3.60;;
14241;SDS011;7205;50.864;12.766;2023-04-25T07:32:02;4.50;;;3.57;;
14241;SDS011;7205;50.864;12.766;2023-04-25T07:34:30;4.50;;;3.40;;
14241;SDS011;7205;50.864;12.766;2023-04-25T07:36:57;5.17;;;3.90;;
14241;SDS011;7205;50.864;12.766;2023-04-25T07:39:30;4.60;;;3.63;;
14241;SDS011;7205;50.864;12.766;2023-04-25T07:42:00;8.00;;;3.90;;
14241;SDS011;7205;50.864;12.766;2023-04-25T07:44:28;4.80;;;3.60;;
14241;SDS011;7205;50.864;12.766;2023-04-25T07:46:57;4.27;;;3.87;;
14241;SDS011;7205;50.864;12.766;2023-04-25T07:49:24;4.33;;;3.93;;
14241;SDS011;7205;50.864;12.766;2023-04-25T07:51:51;4.87;;;3.60;;
14241;SDS011;7205;50.864;12.766;2023-04-25T07:54:19;4.80;;;3.53;;
14241;SDS011;7205;50.864;12.766;2023-04-25T07:56:52;4.07;;;3.70;;
14241;SDS011;7205;50.864;12.766;2023-04-25T07:59:19;4.47;;;3.43;;
14241;SDS011;7205;50.864;12.766;2023-04-25T08:01:47;4.10;;;3.80;;
14241;SDS011;7205;50.864;12.766;2023-04-25T08:04:16;5.00;;;4.07;;
14241;SDS011;7205;50.864;12.766;2023-04-25T08:06:49;5.07;;;3.83;;
14241;SDS011;7205;50.864;12.766;2023-04-25T08:09:21;5.10;;;3.80;;
14241;SDS011;7205;50.864;12.766;2023-04-25T08:11:48;5.30;;;3.50;;
14241;SDS011;7205;50.864;12.766;2023-04-25T08:14:18;5.20;;;3.70;;
14241;SDS011;7205;50.864;12.766;2023-04-25T08:16:47;4.93;;;3.80;;
14241;SDS011;7205;50.864;12.766;2023-04-25T08:19:14;7.43;;;4.27;;
14241;SDS011;7205;50.864;12.766;2023-04-25T08:21:43;4.10;;;3.60;;
14241;SDS011;7205;50.864;12.766;2023-04-25T08:24:14;3.77;;;3.40;;
14241;SDS011;7205;50.864;12.766;2023-04-25T08:26:42;4.03;;;3.20;;
14241;SDS011;7205;50.864;12.766;2023-04-25T08:29:13;3.40;;;3.07;;
14241;SDS011;7205;50.864;12.766;2023-04-25T08:31:40;3.80;;;3.40;;
14241;SDS011;7205;50.864;12.766;2023-04-25T08:34:08;3.77;;;2.97;;
14241;SDS011;7205;50.864;12.766;2023-04-25T08:36:54;3.93;;;3.20;;
14241;SDS011;7205;50.864;12.766;2023-04-25T08:39:41;3.53;;;3.23;;
14241;SDS011;7205;50.864;12.766;2023-04-25T08:42:28;3.73;;;2.80;;
14241;SDS011;7205;50.864;12.766;2023-04-25T08:45:01;2.90;;;2.77;;
14241;SDS011;7205;50.864;12.766;2023-04-25T08:47:33;2.70;;;2.50;;
14241;SDS011;7205;50.864;12.766;2023-04-25T08:50:01;2.80;;;2.60;;
14241;SDS011;7205;50.864;12.766;2023-04-25T08:52:35;2.80;;;2.50;;
14241;SDS011;7205;50.864;12.766;2023-04-25T08:55:06;3.13;;;2.77;;
14241;SDS011;7205;50.864;12.766;2023-04-25T08:57:37;3.00;;;2.30;;
14241;SDS011;7205;50.864;12.766;2023-04-25T09:00:05;2.80;;;2.60;;
14241;SDS011;7205;50.864;12.766;2023-04-25T09:02:36;2.90;;;2.30;;
14241;SDS011;7205;50.864;12.766;2023-04-25T09:05:03;3.07;;;2.77;;
14241;SDS011;7205;50.864;12.766;2023-04-25T09:07:30;3.30;;;3.00;;
14241;SDS011;7205;50.864;12.766;2023-04-25T09:09:59;3.83;;;3.23;;
14241;SDS011;7205;50.864;12.766;2023-04-25T09:12:29;4.10;;;2.90;;
14241;SDS011;7205;50.864;12.766;2023-04-25T09:15:04;3.10;;;2.80;;
14241;SDS011;7205;50.864;12.766;2023-04-25T09:18:04;3.50;;;3.20;;
14241;SDS011;7205;50.864;12.766;2023-04-25T09:20:39;3.23;;;3.00;;
14241;SDS011;7205;50.864;12.766;2023-04-25T09:23:07;3.53;;;3.23;;
14241;SDS011;7205;50.864;12.766;2023-04-25T09:25:38;7.53;;;3.60;;
14241;SDS011;7205;50.864;12.766;2023-04-25T09:28:06;3.80;;;3.50;;
14241;SDS011;7205;50.864;12.766;2023-04-25T09:30:34;4.50;;;4.07;;
14241;SDS011;7205;50.864;12.766;2023-04-25T09:33:17;4.03;;;3.70;;
14241;SDS011;7205;50.864;12.766;2023-04-25T09:35:48;3.87;;;3.40;;
14241;SDS011;7205;50.864;12.766;2023-04-25T09:38:28;3.80;;;3.43;;
14241;SDS011;7205;50.864;12.766;2023-04-25T09:41:02;4.20;;;3.57;;
14241;SDS011;7205;50.864;12.766;2023-04-25T09:43:36;3.20;;;3.00;;
14241;SDS011;7205;50.864;12.766;2023-04-25T09:46:07;5.03;;;3.83;;
14241;SDS011;7205;50.864;12.766;2023-04-25T09:48:39;3.83;;;3.53;;
14241;SDS011;7205;50.864;12.766;2023-04-25T09:51:06;4.07;;;3.70;;
14241;SDS011;7205;50.864;12.766;2023-04-25T09:53:36;4.10;;;3.40;;
14241;SDS011;7205;50.864;12.766;2023-04-25T09:56:15;3.80;;;3.47;;
14241;SDS011;7205;50.864;12.766;2023-04-25T09:58:42;4.43;;;4.03;;
14241;SDS011;7205;50.864;12.766;2023-04-25T10:01:10;4.33;;;3.93;;
14241;SDS011;7205;50.864;12.766;2023-04-25T10:03:54;4.23;;;3.83;;
14241;SDS011;7205;50.864;12.766;2023-04-25T10:06:47;4.07;;;3.77;;
14241;SDS011;7205;50.864;12.766;2023-04-25T10:09:16;6.13;;;4.07;;
14241;SDS011;7205;50.864;12.766;2023-04-25T10:11:47;4.40;;;4.00;;
14241;SDS011;7205;50.864;12.766;2023-04-25T10:14:14;5.27;;;4.87;;
14241;SDS011;7205;50.864;12.766;2023-04-25T10:16:42;6.60;;;5.80;;
14241;SDS011;7205;50.864;12.766;2023-04-25T10:19:09;7.97;;;6.43;;
14241;SDS011;7205;50.864;12.766;2023-04-25T10:21:36;9.03;;;6.70;;
14241;SDS011;7205;50.864;12.766;2023-04-25T10:24:10;9.83;;;6.27;;
14241;SDS011;7205;50.864;12.766;2023-04-25T10:26:38;6.10;;;5.47;;
14241;SDS011;7205;50.864;12.766;2023-04-25T10:29:06;5.97;;;5.40;;
14241;SDS011;7205;50.864;12.766;2023-04-25T10:31:33;5.80;;;5.20;;
14241;SDS011;7205;50.864;12.766;2023-04-25T10:34:11;6.73;;;4.13;;
14241;SDS011;7205;50.864;12.766;2023-04-25T10:36:38;4.93;;;3.97;;
14241;SDS011;7205;50.864;12.766;2023-04-25T10:39:06;3.43;;;2.77;;
14241;SDS011;7205;50.864;12.766;2023-04-25T10:41:45;5.27;;;3.20;;
14241;SDS011;7205;50.864;12.766;2023-04-25T10:44:14;4.33;;;2.57;;
14241;SDS011;7205;50.864;12.766;2023-04-25T10:46:41;4.60;;;3.47;;
14241;SDS011;7205;50.864;12.766;2023-04-25T10:49:11;3.67;;;3.40;;
14241;SDS011;7205;50.864;12.766;2023-04-25T10:52:10;3.90;;;3.30;;
14241;SDS011;7205;50.864;12.766;2023-04-25T10:54:42;5.07;;;3.03;;
14241;SDS011;7205;50.864;12.766;2023-04-25T10:57:28;4.10;;;3.50;;
14241;SDS011;7205;50.864;12.766;2023-04-25T10:59:59;5.27;;;4.30;;
14241;SDS011;7205;50.864;12.766;2023-04-25T11:02:38;4.90;;;4.40;;
14241;SDS011;7205;50.864;12.766;2023-04-25T11:05:08;4.87;;;3.90;;
14241;SDS011;7205;50.864;12.766;2023-04-25T11:07:39;5.73;;;4.33;;
14241;SDS011;7205;50.864;12.766;2023-04-25T11:10:15;6.03;;;4.20;;
14241;SDS011;7205;50.864;12.766;2023-04-25T11:12:42;6.13;;;3.93;;
14241;SDS011;7205;50.864;12.766;2023-04-25T11:15:10;6.23;;;4.67;;
14241;SDS011;7205;50.864;12.766;2023-04-25T11:17:38;5.73;;;5.10;;
14241;SDS011;7205;50.864;12.766;2023-04-25T11:20:07;5.10;;;4.70;;
14241;SDS011;7205;50.864;12.766;2023-04-25T11:22:37;6.40;;;4.73;;
14241;SDS011;7205;50.864;12.766;2023-04-25T11:25:06;7.67;;;4.77;;
14241;SDS011;7205;50.864;12.766;2023-04-25T11:27:33;12.80;;;4.90;;
14241;SDS011;7205;50.864;12.766;2023-04-25T11:32:48;7.83;;;4.47;;
14241;SDS011;7205;50.864;12.766;2023-04-25T11:35:15;9.63;;;4.37;;
14241;SDS011;7205;50.864;12.766;2023-04-25T11:37:43;6.43;;;3.87;;
14241;SDS011;7205;50.864;12.766;2023-04-25T11:40:10;4.43;;;4.03;;
14241;SDS011;7205;50.864;12.766;2023-04-25T11:42:38;6.17;;;3.87;;
14241;SDS011;7205;50.864;12.766;2023-04-25T11:45:06;7.37;;;3.87;;
14241;SDS011;7205;50.864;12.766;2023-04-25T11:47:36;4.20;;;3.23;;
14241;SDS011;7205;50.864;12.766;2023-04-25T11:50:04;5.77;;;3.73;;
14241;SDS011;7205;50.864;12.766;2023-04-25T11:52:36;5.57;;;3.77;;
14241;SDS011;7205;50.864;12.766;2023-04-25T11:55:04;6.13;;;3.93;;
14241;SDS011;7205;50.864;12.766;2023-04-25T11:57:32;5.10;;;3.03;;
14241;SDS011;7205;50.864;12.766;2023-04-25T12:00:05;8.97;;;3.67;;
14241;SDS011;7205;50.864;12.766;2023-04-25T12:02:39;5.23;;;3.47;;
14241;SDS011;7205;50.864;12.766;2023-04-25T12:05:07;6.10;;;3.60;;
14241;SDS011;7205;50.864;12.766;2023-04-25T12:07:34;3.67;;;3.33;;
14241;SDS011;7205;50.864;12.766;2023-04-25T12:10:04;7.23;;;3.53;;
14241;SDS011;7205;50.864;12.766;2023-04-25T12:12:32;8.13;;;3.60;;
14241;SDS011;7205;50.864;12.766;2023-04-25T12:15:07;6.43;;;4.30;;
14241;SDS011;7205;50.864;12.766;2023-04-25T12:17:36;6.10;;;3.77;;
14241;SDS011;7205;50.864;12.766;2023-04-25T12:20:09;7.53;;;3.70;;
14241;SDS011;7205;50.864;12.766;2023-04-25T12:22:37;7.23;;;3.83;;
14241;SDS011;7205;50.864;12.766;2023-04-25T12:25:04;6.20;;;4.30;;
14241;SDS011;7205;50.864;12.766;2023-04-25T12:27:32;7.77;;;3.70;;
14241;SDS011;7205;50.864;12.766;2023-04-25T12:30:01;5.97;;;3.27;;
14241;SDS011;7205;50.864;12.766;2023-04-25T12:32:28;3.50;;;2.67;;
14241;SDS011;7205;50.864;12.766;2023-04-25T12:34:56;2.63;;;2.43;;
14241;SDS011;7205;50.864;12.766;2023-04-25T12:37:24;3.73;;;2.80;;
14241;SDS011;7205;50.864;12.766;2023-04-25T12:39:51;4.13;;;3.60;;
14241;SDS011;7205;50.864;12.766;2023-04-25T12:42:18;6.03;;;4.03;;
14241;SDS011;7205;50.864;12.766;2023-04-25T12:44:44;5.33;;;3.27;;
14241;SDS011;7205;50.864;12.766;2023-04-25T12:47:12;4.40;;;3.30;;
14241;SDS011;7205;50.864;12.766;2023-04-25T12:49:38;6.30;;;3.10;;
14241;SDS011;7205;50.864;12.766;2023-04-25T12:52:05;3.40;;;3.10;;
14241;SDS011;7205;50.864;12.766;2023-04-25T12:54:33;5.20;;;3.23;;
14241;SDS011;7205;50.864;12.766;2023-04-25T12:57:00;3.23;;;2.60;;
14241;SDS011;7205;50.864;12.766;2023-04-25T12:59:28;3.37;;;2.40;;
14241;SDS011;7205;50.864;12.766;2023-04-25T13:01:55;3.80;;;2.60;;
14241;SDS011;7205;50.864;12.766;2023-04-25T13:04:21;3.57;;;2.23;;
14241;SDS011;7205;50.864;12.766;2023-04-25T13:06:48;3.07;;;2.27;;
14241;SDS011;7205;50.864;12.766;2023-04-25T13:09:15;3.50;;;2.40;;
14241;SDS011;7205;50.864;12.766;2023-04-25T13:11:44;2.67;;;2.30;;
14241;SDS011;7205;50.864;12.766;2023-04-25T13:14:18;2.80;;;2.30;;
14241;SDS011;7205;50.864;12.766;2023-04-25T13:16:45;5.50;;;2.03;;
14241;SDS011;7205;50.864;12.766;2023-04-25T13:19:12;3.57;;;2.63;;
14241;SDS011;7205;50.864;12.766;2023-04-25T13:21:38;3.90;;;2.37;;
14241;SDS011;7205;50.864;12.766;2023-04-25T13:24:06;2.70;;;2.40;;
14241;SDS011;7205;50.864;12.766;2023-04-25T13:26:33;5.43;;;3.13;;
14241;SDS011;7205;50.864;12.766;2023-04-25T13:29:04;2.90;;;2.50;;
14241;SDS011;7205;50.864;12.766;2023-04-25T13:31:31;3.90;;;2.53;;
14241;SDS011;7205;50.864;12.766;2023-04-25T13:33:58;5.23;;;2.67;;
14241;SDS011;7205;50.864;12.766;2023-04-25T13:36:25;2.93;;;2.40;;
14241;SDS011;7205;50.864;12.766;2023-04-25T13:38:53;3.40;;;2.60;;
14241;SDS011;7205;50.864;12.766;2023-04-25T13:41:19;3.10;;;2.50;;
14241;SDS011;7205;50.864;12.766;2023-04-25T13:43:46;2.70;;;2.47;;
14241;SDS011;7205;50.864;12.766;2023-04-25T13:46:15;2.83;;;2.40;;
14241;SDS011;7205;50.864;12.766;2023-04-25T13:48:42;6.30;;;2.83;;
14241;SDS011;7205;50.864;12.766;2023-04-25T14:14:20;6.30;;;3.37;;
14241;SDS011;7205;50.864;12.766;2023-04-25T14:17:25;6.53;;;3.37;;
14241;SDS011;7205;50.864;12.766;2023-04-25T14:20:20;4.67;;;3.40;;
14241;SDS011;7205;50.864;12.766;2023-04-25T14:22:49;3.80;;;3.40;;
14241;SDS011;7205;50.864;12.766;2023-04-25T14:29:25;9.73;;;4.27;;
14241;SDS011;7205;50.864;12.766;2023-04-25T14:32:15;8.83;;;3.77;;
14241;SDS011;7205;50.864;12.766;2023-04-25T14:35:04;8.73;;;3.90;;
14241;SDS011;7205;50.864;12.766;2023-04-25T14:37:37;6.50;;;3.13;;
14241;SDS011;7205;50.864;12.766;2023-04-25T14:42:53;6.53;;;3.63;;
14241;SDS011;7205;50.864;12.766;2023-04-25T14:47:11;6.63;;;3.50;;
14241;SDS011;7205;50.864;12.766;2023-04-25T14:49:42;6.97;;;3.57;;
14241;SDS011;7205;50.864;12.766;2023-04-25T15:03:00;5.93;;;2.53;;
14241;SDS011;7205;50.864;12.766;2023-04-25T15:05:29;8.53;;;3.13;;
14241;SDS011;7205;50.864;12.766;2023-04-25T15:07:55;5.80;;;3.07;;
14241;SDS011;7205;50.864;12.766;2023-04-25T15:10:22;5.93;;;2.40;;
14241;SDS011;7205;50.864;12.766;2023-04-25T15:12:49;4.47;;;2.83;;
14241;SDS011;7205;50.864;12.766;2023-04-25T15:15:18;9.83;;;3.13;;
14241;SDS011;7205;50.864;12.766;2023-04-25T15:17:45;7.43;;;2.60;;
14241;SDS011;7205;50.864;12.766;2023-04-25T15:20:13;7.70;;;2.90;;
14241;SDS011;7205;50.864;12.766;2023-04-25T15:22:41;7.83;;;2.37;;
14241;SDS011;7205;50.864;12.766;2023-04-25T15:25:10;5.87;;;2.73;;
14241;SDS011;7205;50.864;12.766;2023-04-25T15:27:43;10.07;;;2.80;;
14241;SDS011;7205;50.864;12.766;2023-04-25T16:02:11;4.57;;;2.17;;
14241;SDS011;7205;50.864;12.766;2023-04-25T16:04:39;3.00;;;2.27;;
14241;SDS011;7205;50.864;12.766;2023-04-25T16:48:45;4.40;;;1.60;;
14241;SDS011;7205;50.864;12.766;2023-04-25T16:51:23;5.40;;;2.20;;
14241;SDS011;7205;50.864;12.766;2023-04-25T16:53:54;3.77;;;1.50;;
14241;SDS011;7205;50.864;12.766;2023-04-25T16:56:20;4.13;;;2.07;;
14241;SDS011;7205;50.864;12.766;2023-04-25T16:58:48;11.30;;;1.77;;
14241;SDS011;7205;50.864;12.766;2023-04-25T17:01:16;4.63;;;1.63;;
14241;SDS011;7205;50.864;12.766;2023-04-25T17:03:46;3.43;;;1.50;;
14241;SDS011;7205;50.864;12.766;2023-04-25T17:06:13;5.97;;;1.90;;
14241;SDS011;7205;50.864;12.766;2023-04-25T17:08:42;8.20;;;2.40;;
14241;SDS011;7205;50.864;12.766;2023-04-25T17:11:09;4.70;;;1.63;;
14241;SDS011;7205;50.864;12.766;2023-04-25T17:13:36;4.20;;;1.87;;
14241;SDS011;7205;50.864;12.766;2023-04-25T17:16:04;5.70;;;1.80;;
14241;SDS011;7205;50.864;12.766;2023-04-25T17:18:31;7.93;;;1.87;;
14241;SDS011;7205;50.864;12.766;2023-04-25T17:21:00;3.47;;;1.57;;